Time;durP1;ratioP1;P1;durP2;ratioP2;P2;SDS_P1;SDS_P2;PMS_P1;PMS_P2;Temp;Humidity;BMP_temperature;BMP_pressure;BME280_temperature;BME280_humidity;BME280_pressure;Samples;Min_cycle;Max_cycle;Signal;HPM_P1;HPM_P2
2022/12/21 00:01:14;;;;;;;4.03;3.65;;;21.00;60.00;;;;;;5025876;28;20200;-36
2022/12/21 00:03:41;;;;;;;4.45;3.67;;;21.00;60.00;;;;;;5031704;28;20195;-36
2022/12/21 00:06:09;;;;;;;4.38;3.10;;;21.00;60.10;;;;;;5024279;28;20203;-36
2022/12/21 00:08:42;;;;;;;3.30;3.00;;;21.00;60.30;;;;;;5022286;28;20562;-40
2022/12/21 00:11:09;;;;;;;3.92;3.33;;;20.90;60.30;;;;;;5031191;28;20283;-38
2022/12/21 00:13:36;;;;;;;4.93;2.65;;;20.90;60.40;;;;;;5025088;28;20215;-37
2022/12/21 00:16:04;;;;;;;4.40;2.60;;;20.80;60.40;;;;;;5023905;28;20221;-37
2022/12/21 00:18:32;;;;;;;5.40;3.30;;;20.80;60.40;;;;;;5028790;28;20199;-36
2022/12/21 00:21:03;;;;;;;4.25;2.80;;;20.80;60.50;;;;;;5031214;28;20251;-38
2022/12/21 00:23:32;;;;;;;4.07;3.72;;;20.70;60.50;;;;;;5012228;28;20199;-36
2022/12/21 00:26:00;;;;;;;4.72;2.83;;;20.70;60.60;;;;;;5022077;28;20536;-35
2022/12/21 00:28:28;;;;;;;2.83;2.20;;;20.70;60.60;;;;;;5032882;28;20416;-37
2022/12/21 00:30:54;;;;;;;6.82;3.10;;;20.70;60.70;;;;;;5019360;28;20200;-39
2022/12/21 00:33:21;;;;;;;6.47;3.35;;;20.70;60.70;;;;;;5021606;28;20573;-37
2022/12/21 00:35:49;;;;;;;3.50;2.85;;;20.60;60.70;;;;;;5020865;28;20251;-39
2022/12/21 00:38:16;;;;;;;4.30;2.55;;;20.70;60.90;;;;;;5023905;28;20201;-35
2022/12/21 00:40:44;;;;;;;3.15;2.47;;;20.80;60.60;;;;;;5032940;28;20206;-39
2022/12/21 00:43:11;;;;;;;2.85;2.53;;;20.90;60.40;;;;;;5031327;28;20199;-40
2022/12/21 00:45:38;;;;;;;3.85;2.63;;;20.90;60.10;;;;;;5031038;28;20215;-36
2022/12/21 00:48:06;;;;;;;3.90;2.50;;;20.90;60.00;;;;;;5020663;28;20203;-39
2022/12/21 00:50:33;;;;;;;2.72;2.33;;;20.90;59.90;;;;;;5032746;28;20304;-36
2022/12/21 00:53:00;;;;;;;2.85;2.60;;;20.90;60.00;;;;;;5024505;28;20211;-35
2022/12/21 00:55:27;;;;;;;2.42;2.22;;;20.80;60.10;;;;;;5032984;28;20281;-36
2022/12/21 00:57:55;;;;;;;4.07;3.55;;;20.80;60.30;;;;;;5027413;28;20255;-36
2022/12/21 01:00:22;;;;;;;4.30;3.88;;;20.70;61.10;;;;;;5031505;28;20193;-37
2022/12/21 01:02:49;;;;;;;4.72;3.20;;;20.70;60.40;;;;;;5029469;28;20200;-35
2022/12/21 01:05:15;;;;;;;3.85;2.30;;;20.70;60.50;;;;;;5034586;28;20647;-37
2022/12/21 01:07:42;;;;;;;2.53;2.10;;;20.60;60.40;;;;;;5027510;28;20211;-38
2022/12/21 01:10:10;;;;;;;2.65;2.13;;;20.60;60.50;;;;;;5023629;28;20201;-35
2022/12/21 01:12:36;;;;;;;6.13;3.13;;;20.60;60.40;;;;;;5030059;28;20212;-35
2022/12/21 01:15:06;;;;;;;4.45;3.25;;;20.60;60.40;;;;;;5020100;28;20956;-39
2022/12/21 01:17:33;;;;;;;2.85;2.35;;;20.60;60.50;;;;;;5033609;28;20608;-36
2022/12/21 01:20:00;;;;;;;3.60;2.05;;;20.60;60.40;;;;;;5033412;28;20233;-38
2022/12/21 01:22:26;;;;;;;2.50;2.05;;;20.60;60.60;;;;;;5030603;28;20204;-38
2022/12/21 01:24:53;;;;;;;4.05;2.75;;;20.50;60.50;;;;;;5030310;28;20208;-36
2022/12/21 01:27:20;;;;;;;3.03;2.30;;;20.50;60.60;;;;;;5033624;28;20210;-36
2022/12/21 01:29:46;;;;;;;4.30;2.85;;;20.50;60.60;;;;;;5024126;28;20270;-37
2022/12/21 01:32:14;;;;;;;2.67;2.05;;;20.50;60.70;;;;;;5015357;28;20203;-35
2022/12/21 01:34:41;;;;;;;3.33;2.22;;;20.70;60.70;;;;;;5033499;28;20224;-37
2022/12/21 01:37:08;;;;;;;3.28;2.30;;;20.80;60.40;;;;;;5029992;28;20203;-38
2022/12/21 01:39:34;;;;;;;3.00;2.40;;;20.90;60.10;;;;;;5030317;28;20265;-37
2022/12/21 01:42:01;;;;;;;2.60;1.80;;;20.90;59.90;;;;;;5030982;28;20208;-39
2022/12/21 01:45:00;;;;;;;5.47;2.55;;;20.90;59.80;;;;;;5029442;28;20211;-38
2022/12/21 01:47:33;;;;;;;3.70;2.20;;;20.80;59.90;;;;;;5032514;28;20196;-38
2022/12/21 01:50:03;;;;;;;4.90;2.20;;;20.70;59.90;;;;;;5030764;28;20199;-41
2022/12/21 01:52:32;;;;;;;2.28;1.95;;;20.70;60.10;;;;;;5030495;28;20214;-39
2022/12/21 01:55:02;;;;;;;2.95;2.50;;;20.60;60.00;;;;;;5025854;28;20631;-37
2022/12/21 01:57:32;;;;;;;4.25;2.92;;;20.60;60.10;;;;;;5018512;28;20232;-39
2022/12/21 02:00:00;;;;;;;4.07;2.30;;;20.60;60.20;;;;;;5032268;28;20196;-37
2022/12/21 02:02:34;;;;;;;2.15;1.67;;;20.60;60.30;;;;;;5025593;28;20609;-46
2022/12/21 02:05:08;;;;;;;2.97;2.28;;;20.50;61.00;;;;;;5026579;28;20836;-37
2022/12/21 02:07:35;;;;;;;3.95;1.98;;;20.50;60.30;;;;;;5027668;28;20198;-37
2022/12/21 02:10:03;;;;;;;2.58;2.15;;;20.50;60.30;;;;;;5023866;28;20189;-42
2022/12/21 02:12:31;;;;;;;2.28;1.95;;;20.50;60.30;;;;;;5029093;28;20200;-37
2022/12/21 02:14:58;;;;;;;2.63;2.13;;;20.50;60.30;;;;;;5027554;28;20233;-36
2022/12/21 02:17:39;;;;;;;2.88;2.50;;;20.50;60.40;;;;;;5023656;28;20196;-36
2022/12/21 02:20:40;;;;;;;2.63;2.10;;;20.50;60.40;;;;;;5022959;28;20585;-36
2022/12/21 02:23:39;;;;;;;2.40;2.10;;;20.40;60.40;;;;;;5020651;28;20263;-38
2022/12/21 02:26:22;;;;;;;2.42;2.00;;;20.40;60.40;;;;;;5023753;28;20261;-35
2022/12/21 02:29:14;;;;;;;3.28;2.38;;;20.40;60.40;;;;;;5023592;28;20187;-39
2022/12/21 02:31:52;;;;;;;2.45;2.25;;;20.40;60.50;;;;;;5018488;28;20201;-44
2022/12/21 02:34:27;;;;;;;3.60;2.70;;;20.40;60.60;;;;;;5022713;28;20324;-37
2022/12/21 02:37:01;;;;;;;2.40;2.00;;;20.40;60.70;;;;;;5022690;28;20194;-36
2022/12/21 02:39:35;;;;;;;3.40;2.25;;;20.50;60.60;;;;;;5025475;28;20209;-42
2022/12/21 02:42:05;;;;;;;2.50;2.22;;;20.60;60.30;;;;;;5027951;28;20187;-37
2022/12/21 02:44:42;;;;;;;2.42;2.03;;;20.70;59.90;;;;;;5019489;28;20197;-36
2022/12/21 02:47:15;;;;;;;2.47;1.90;;;20.80;59.90;;;;;;5032182;28;20207;-39
2022/12/21 02:49:47;;;;;;;2.50;2.00;;;20.70;59.80;;;;;;5028560;28;20567;-36
2022/12/21 02:52:20;;;;;;;2.63;2.05;;;20.70;59.80;;;;;;5027829;28;20217;-36
2022/12/21 02:54:47;;;;;;;3.15;1.90;;;20.60;60.60;;;;;;5028304;28;20207;-35
2022/12/21 02:57:14;;;;;;;1.77;1.60;;;20.60;60.00;;;;;;5026174;28;20192;-39
2022/12/21 02:59:44;;;;;;;4.13;2.33;;;20.50;60.70;;;;;;5018543;28;20197;-42
2022/12/21 03:02:41;;;;;;;2.53;2.33;;;20.50;60.00;;;;;;5025596;28;20196;-39
2022/12/21 03:05:34;;;;;;;2.30;2.10;;;20.50;60.10;;;;;;5030475;28;20203;-38
2022/12/21 03:08:12;;;;;;;3.80;1.90;;;20.40;60.10;;;;;;5022001;28;20199;-36
2022/12/21 03:10:49;;;;;;;3.40;2.55;;;20.40;60.20;;;;;;5025901;28;20634;-36
2022/12/21 03:13:28;;;;;;;3.13;2.30;;;20.40;60.20;;;;;;5024626;28;20201;-37
2022/12/21 03:16:00;;;;;;;3.20;2.22;;;20.40;60.20;;;;;;5025440;28;20212;-36
2022/12/21 03:18:40;;;;;;;2.17;1.98;;;20.40;60.20;;;;;;5025671;28;20203;-37
2022/12/21 03:21:12;;;;;;;3.72;2.40;;;20.40;60.20;;;;;;5024113;28;20212;-36
2022/12/21 03:23:45;;;;;;;2.10;1.60;;;20.40;60.20;;;;;;5022947;28;20621;-36
2022/12/21 03:26:18;;;;;;;3.40;2.20;;;20.40;60.30;;;;;;5032208;28;20246;-40
2022/12/21 03:28:47;;;;;;;2.20;1.52;;;20.30;60.30;;;;;;5024483;28;20219;-39
2022/12/21 03:31:19;;;;;;;2.67;1.73;;;20.30;60.30;;;;;;5020595;28;20193;-41
2022/12/21 03:33:51;;;;;;;2.78;1.98;;;20.20;60.30;;;;;;5025257;28;20203;-39
2022/12/21 03:36:21;;;;;;;1.92;1.83;;;20.30;60.50;;;;;;5025913;28;20216;-38
2022/12/21 03:38:52;;;;;;;2.15;1.95;;;20.20;60.40;;;;;;5025938;28;20222;-39
2022/12/21 03:41:22;;;;;;;2.63;2.28;;;20.30;60.40;;;;;;5024116;28;20578;-36
2022/12/21 03:43:52;;;;;;;10.18;1.83;;;20.50;60.30;;;;;;5029192;28;20211;-36
2022/12/21 03:46:24;;;;;;;3.67;1.83;;;20.60;60.00;;;;;;5025280;28;20665;-37
2022/12/21 03:48:57;;;;;;;2.13;1.70;;;20.60;59.80;;;;;;5030946;28;20200;-36
2022/12/21 03:51:33;;;;;;;2.30;2.10;;;20.60;59.70;;;;;;5034719;28;20191;-39
2022/12/21 03:54:08;;;;;;;3.80;2.22;;;20.60;59.70;;;;;;5030169;28;20273;-36
2022/12/21 03:56:38;;;;;;;2.53;2.15;;;20.50;59.70;;;;;;5036246;28;20222;-36
2022/12/21 03:59:06;;;;;;;1.70;1.55;;;20.50;59.80;;;;;;5033391;28;20192;-38
2022/12/21 04:01:41;;;;;;;2.28;1.73;;;20.40;59.80;;;;;;5032785;28;20199;-36
2022/12/21 04:04:17;;;;;;;2.20;1.85;;;20.40;59.90;;;;;;5030981;28;20214;-37
2022/12/21 04:06:45;;;;;;;2.55;1.83;;;20.40;59.90;;;;;;5031946;28;20261;-37
2022/12/21 04:09:13;;;;;;;2.88;2.45;;;20.40;60.10;;;;;;5039734;28;20607;-36
2022/12/21 04:14:21;;;;;;;2.80;1.95;;;20.40;60.00;;;;;;5026729;28;20717;-36
2022/12/21 04:16:47;;;;;;;1.83;1.55;;;20.40;60.00;;;;;;5031079;28;20258;-40
2022/12/21 04:22:00;;;;;;;1.65;1.55;;;20.30;60.10;;;;;;5035530;28;20207;-35
2022/12/21 04:29:55;;;;;;;2.33;2.13;;;20.20;60.10;;;;;;5028937;28;20219;-38
2022/12/21 04:32:22;;;;;;;2.05;1.75;;;20.20;60.20;;;;;;5021172;28;20200;-36
2022/12/21 04:34:50;;;;;;;3.33;2.22;;;20.20;60.30;;;;;;5029486;28;20211;-42
2022/12/21 04:37:31;;;;;;;2.75;2.30;;;20.20;60.30;;;;;;5027109;28;20220;-42
2022/12/21 04:39:57;;;;;;;2.63;1.85;;;20.20;60.40;;;;;;5025540;28;20192;-36
2022/12/21 04:42:24;;;;;;;1.67;1.58;;;20.10;60.40;;;;;;5030328;28;20195;-36
2022/12/21 04:44:51;;;;;;;3.30;1.90;;;20.10;60.40;;;;;;5029602;28;20313;-39
2022/12/21 04:47:18;;;;;;;1.60;1.50;;;20.00;60.40;;;;;;5026591;28;20266;-36
2022/12/21 04:49:45;;;;;;;2.53;1.70;;;20.00;60.60;;;;;;5024978;28;20266;-35
2022/12/21 04:52:13;;;;;;;2.95;2.08;;;20.00;60.60;;;;;;5028193;28;20204;-36
2022/12/21 04:54:39;;;;;;;2.78;2.20;;;19.90;60.70;;;;;;5033734;28;20195;-37
2022/12/21 04:57:06;;;;;;;1.85;1.67;;;19.90;60.70;;;;;;5032539;28;20216;-36
2022/12/21 04:59:33;;;;;;;1.90;1.70;;;19.90;60.80;;;;;;5028969;28;20543;-37
2022/12/21 05:01:59;;;;;;;2.60;2.40;;;20.30;60.70;;;;;;5025581;28;20195;-36
2022/12/21 05:04:26;;;;;;;1.75;1.58;;;20.50;60.20;;;;;;5031548;28;20200;-35
2022/12/21 05:06:54;;;;;;;1.98;1.77;;;20.70;59.60;;;;;;5029794;28;20200;-35
2022/12/21 05:09:25;;;;;;;3.10;1.80;;;20.70;59.30;;;;;;5023498;28;20612;-35
2022/12/21 05:11:52;;;;;;;2.00;1.65;;;20.80;59.40;;;;;;5013368;28;20236;-35
2022/12/21 05:14:18;;;;;;;1.40;1.30;;;21.00;59.30;;;;;;5031918;28;20563;-41
2022/12/21 05:16:45;;;;;;;2.38;1.98;;;21.30;58.90;;;;;;5028159;28;20224;-43
2022/12/21 05:19:13;;;;;;;1.95;1.60;;;21.30;58.70;;;;;;5027226;28;20213;-36
2022/12/21 05:21:40;;;;;;;1.83;1.63;;;21.50;58.40;;;;;;5029131;28;20644;-36
2022/12/21 05:24:07;;;;;;;2.10;1.60;;;21.60;58.20;;;;;;5026581;28;20239;-35
2022/12/21 05:26:35;;;;;;;2.95;2.75;;;21.80;58.10;;;;;;5030288;28;20206;-37
2022/12/21 05:29:02;;;;;;;2.80;2.40;;;22.00;58.00;;;;;;5029124;28;20738;-43
2022/12/21 05:31:29;;;;;;;1.42;1.33;;;21.90;57.70;;;;;;5032047;28;20218;-37
2022/12/21 05:33:57;;;;;;;2.00;1.80;;;22.00;57.80;;;;;;5022570;28;20201;-37
2022/12/21 05:36:24;;;;;;;3.20;1.75;;;22.00;58.30;;;;;;5030183;28;20220;-36
2022/12/21 05:38:51;;;;;;;1.30;1.20;;;22.00;57.80;;;;;;5021411;28;20402;-37
2022/12/21 05:41:18;;;;;;;1.55;1.45;;;22.10;57.70;;;;;;5027288;28;20200;-36
2022/12/21 05:43:46;;;;;;;1.70;1.60;;;22.20;57.50;;;;;;5029126;28;20202;-36
2022/12/21 05:46:14;;;;;;;2.40;1.67;;;22.20;57.40;;;;;;5027435;28;20570;-37
2022/12/21 05:48:40;;;;;;;1.73;1.63;;;22.20;57.50;;;;;;5031283;28;20204;-38
2022/12/21 05:51:09;;;;;;;1.98;1.50;;;22.10;57.40;;;;;;5029875;28;20206;-37
2022/12/21 05:53:37;;;;;;;1.50;1.40;;;22.10;57.60;;;;;;5035022;28;20694;-37
2022/12/21 05:56:04;;;;;;;1.80;1.60;;;22.10;57.60;;;;;;5034015;28;20216;-42
2022/12/21 05:58:30;;;;;;;1.98;1.77;;;22.10;57.60;;;;;;5031167;28;20205;-38
2022/12/21 06:01:01;;;;;;;2.08;1.83;;;22.20;57.60;;;;;;5032139;28;20198;-36
2022/12/21 06:03:28;;;;;;;1.75;1.33;;;22.40;57.90;;;;;;5033094;28;20283;-36
2022/12/21 06:06:01;;;;;;;2.10;1.70;;;22.50;57.10;;;;;;5028840;28;20299;-37
2022/12/21 06:08:29;;;;;;;1.73;1.60;;;22.50;57.10;;;;;;5024613;28;20201;-43
2022/12/21 06:10:56;;;;;;;2.10;1.58;;;22.40;57.10;;;;;;5030988;28;20199;-36
2022/12/21 06:13:23;;;;;;;1.60;1.40;;;22.40;57.10;;;;;;5034210;28;20193;-38
2022/12/21 06:15:49;;;;;;;2.45;1.40;;;22.40;57.10;;;;;;5026168;28;20200;-35
2022/12/21 06:18:17;;;;;;;2.47;2.28;;;22.30;57.20;;;;;;5024690;28;20199;-35
2022/12/21 06:20:51;;;;;;;2.42;1.40;;;22.30;57.30;;;;;;5032805;28;20227;-37
2022/12/21 06:23:18;;;;;;;2.60;2.40;;;22.30;57.20;;;;;;5022487;28;20202;-37
2022/12/21 06:25:45;;;;;;;2.20;2.00;;;22.50;57.20;;;;;;5028701;28;20200;-42
2022/12/21 06:28:11;;;;;;;1.42;1.33;;;22.50;57.00;;;;;;5030562;28;20195;-37
2022/12/21 06:30:38;;;;;;;2.05;1.85;;;22.60;56.90;;;;;;5024907;28;20191;-36
2022/12/21 06:33:05;;;;;;;1.67;1.50;;;22.60;56.90;;;;;;5021112;28;20282;-43
2022/12/21 06:35:34;;;;;;;1.50;1.30;;;22.50;57.00;;;;;;5026529;28;20222;-37
2022/12/21 06:38:01;;;;;;;1.65;1.55;;;22.40;57.00;;;;;;5025731;28;20250;-37
2022/12/21 06:40:27;;;;;;;1.80;1.70;;;22.40;57.10;;;;;;5026397;28;21105;-40
2022/12/21 06:42:54;;;;;;;2.15;1.75;;;22.30;57.10;;;;;;5023720;28;20197;-36
2022/12/21 06:45:21;;;;;;;1.80;1.70;;;22.40;57.30;;;;;;5020705;28;20216;-36
2022/12/21 06:47:48;;;;;;;1.50;1.40;;;22.40;57.20;;;;;;5021753;28;20204;-38
2022/12/21 06:50:14;;;;;;;1.88;1.70;;;22.60;57.00;;;;;;5026126;28;20204;-37
2022/12/21 06:52:42;;;;;;;2.40;2.20;;;22.60;56.90;;;;;;5030573;28;20611;-40
2022/12/21 06:55:09;;;;;;;2.70;2.50;;;22.70;56.90;;;;;;5030907;28;20253;-39
2022/12/21 06:57:36;;;;;;;3.33;3.03;;;22.80;56.90;;;;;;5031386;28;20266;-35
2022/12/21 07:00:04;;;;;;;2.13;1.63;;;22.90;56.70;;;;;;5026845;28;20204;-35
2022/12/21 07:02:30;;;;;;;2.25;1.60;;;22.90;56.60;;;;;;5023730;28;20288;-42
2022/12/21 07:04:57;;;;;;;2.47;2.28;;;22.80;56.60;;;;;;5025002;28;20296;-37
2022/12/21 07:07:24;;;;;;;1.73;1.63;;;22.70;56.60;;;;;;5029721;28;20255;-37
2022/12/21 07:09:52;;;;;;;2.10;1.90;;;22.60;56.80;;;;;;5020798;28;20653;-36
2022/12/21 07:12:19;;;;;;;1.58;1.15;;;22.60;57.40;;;;;;5034041;28;20246;-39
2022/12/21 07:14:45;;;;;;;2.17;1.17;;;22.60;56.90;;;;;;5028782;28;20193;-40
2022/12/21 07:17:12;;;;;;;1.60;1.50;;;22.70;56.90;;;;;;5021967;28;20221;-42
2022/12/21 07:19:39;;;;;;;1.40;1.30;;;22.70;56.80;;;;;;5017966;28;20216;-36
2022/12/21 07:22:05;;;;;;;2.42;1.67;;;22.80;56.80;;;;;;5018230;28;20197;-41
2022/12/21 07:24:32;;;;;;;2.35;2.03;;;22.80;56.70;;;;;;5019021;28;20192;-37
2022/12/21 07:27:00;;;;;;;1.38;1.27;;;22.80;56.60;;;;;;5019351;28;20196;-36
2022/12/21 07:29:27;;;;;;;2.20;1.80;;;22.80;56.70;;;;;;5017611;28;20212;-37
2022/12/21 07:31:54;;;;;;;1.95;1.75;;;22.90;56.70;;;;;;5019159;28;20190;-40
2022/12/21 07:34:20;;;;;;;2.65;1.95;;;22.80;56.60;;;;;;5019667;28;20242;-40
2022/12/21 07:36:47;;;;;;;2.08;1.88;;;22.80;56.60;;;;;;5021431;28;20230;-38
2022/12/21 07:39:14;;;;;;;1.60;1.40;;;22.80;56.70;;;;;;5022658;28;20188;-34
2022/12/21 07:41:40;;;;;;;2.20;1.73;;;22.80;56.70;;;;;;5022823;28;20243;-36
2022/12/21 07:44:09;;;;;;;1.80;1.70;;;22.80;56.70;;;;;;5022428;28;20191;-37
2022/12/21 07:46:35;;;;;;;1.98;1.77;;;22.80;56.60;;;;;;5027070;28;20207;-36
2022/12/21 07:49:02;;;;;;;2.13;1.80;;;22.80;56.70;;;;;;5027697;28;20200;-35
2022/12/21 07:51:29;;;;;;;1.98;1.60;;;22.80;56.70;;;;;;5035746;28;20228;-36
2022/12/21 07:53:55;;;;;;;2.00;1.85;;;22.70;56.70;;;;;;5027085;28;20259;-36
2022/12/21 07:56:22;;;;;;;3.40;3.10;;;22.70;56.90;;;;;;5030444;28;21568;-36
2022/12/21 07:58:49;;;;;;;3.05;2.85;;;22.60;56.90;;;;;;5020215;28;20207;-37
2022/12/21 08:01:19;;;;;;;1.45;1.27;;;22.50;57.00;;;;;;5029842;28;20207;-36
2022/12/21 08:03:47;;;;;;;1.42;1.33;;;22.50;57.00;;;;;;5025907;28;20197;-36
2022/12/21 08:06:14;;;;;;;1.70;1.27;;;22.40;57.10;;;;;;5037731;28;20550;-36
2022/12/21 08:08:41;;;;;;;2.65;1.75;;;22.50;57.20;;;;;;5028324;28;20226;-37
2022/12/21 08:11:12;;;;;;;1.40;1.25;;;22.40;57.20;;;;;;5025292;28;20223;-35
2022/12/21 08:13:40;;;;;;;1.75;1.23;;;22.40;57.20;;;;;;5031886;28;20193;-38
2022/12/21 08:16:08;;;;;;;2.30;1.60;;;22.60;57.20;;;;;;5027812;28;20201;-38
2022/12/21 08:18:37;;;;;;;1.50;1.40;;;22.60;57.00;;;;;;5025437;28;20555;-42
2022/12/21 08:21:04;;;;;;;1.52;1.27;;;22.60;56.90;;;;;;5027109;28;20311;-36
2022/12/21 08:23:31;;;;;;;2.10;1.50;;;22.70;56.90;;;;;;5022523;28;20629;-36
2022/12/21 08:26:01;;;;;;;1.35;1.25;;;22.80;56.80;;;;;;5028602;28;20204;-35
2022/12/21 08:28:27;;;;;;;1.45;1.35;;;22.80;56.70;;;;;;5025390;28;20197;-37
2022/12/21 08:31:01;;;;;;;1.65;1.17;;;22.80;56.60;;;;;;5021549;28;20189;-41
2022/12/21 08:33:31;;;;;;;1.60;1.50;;;22.90;56.70;;;;;;5024633;28;20280;-42
2022/12/21 08:35:59;;;;;;;1.50;1.40;;;22.80;56.70;;;;;;5019275;28;20200;-36
2022/12/21 08:38:26;;;;;;;1.10;1.00;;;22.70;56.80;;;;;;5021831;28;20240;-35
2022/12/21 08:40:53;;;;;;;1.65;1.40;;;22.60;57.00;;;;;;5021995;28;20212;-35
2022/12/21 08:43:20;;;;;;;1.77;1.58;;;22.40;57.10;;;;;;5031694;28;20209;-38
2022/12/21 08:45:47;;;;;;;1.38;1.27;;;22.30;57.20;;;;;;5026080;28;20278;-36
2022/12/21 08:48:13;;;;;;;1.30;1.10;;;22.20;57.40;;;;;;5029344;28;20242;-38
2022/12/21 08:50:40;;;;;;;1.95;1.42;;;22.10;57.50;;;;;;5033885;28;20197;-36
2022/12/21 08:53:08;;;;;;;1.48;1.30;;;22.00;57.60;;;;;;5023673;28;20196;-36
2022/12/21 08:55:35;;;;;;;1.67;1.58;;;22.00;57.70;;;;;;5034644;28;20580;-35
2022/12/21 08:58:01;;;;;;;1.55;1.20;;;21.90;57.70;;;;;;5023374;28;20220;-38
2022/12/21 09:00:28;;;;;;;1.55;1.45;;;21.80;57.80;;;;;;5023965;28;20198;-36
2022/12/21 09:02:55;;;;;;;1.60;1.40;;;21.90;58.00;;;;;;5020726;28;20283;-40
2022/12/21 09:05:22;;;;;;;1.38;1.27;;;21.90;57.90;;;;;;5036409;28;20276;-37
2022/12/21 09:07:49;;;;;;;1.55;1.35;;;22.10;58.00;;;;;;5022066;28;20204;-37
2022/12/21 09:10:17;;;;;;;1.27;1.17;;;22.30;57.70;;;;;;5019664;28;20284;-37
2022/12/21 09:12:44;;;;;;;1.50;1.40;;;22.50;57.30;;;;;;5029197;28;20204;-37
2022/12/21 09:15:11;;;;;;;2.00;1.42;;;22.70;57.10;;;;;;5024641;28;20280;-42
2022/12/21 09:17:38;;;;;;;3.78;1.42;;;22.80;57.00;;;;;;5027876;28;20216;-37
2022/12/21 09:20:06;;;;;;;3.10;1.00;;;22.80;57.70;;;;;;5027942;28;20223;-35
2022/12/21 09:22:33;;;;;;;2.75;2.55;;;22.90;57.20;;;;;;5028175;28;20196;-35
2022/12/21 09:24:59;;;;;;;2.92;1.50;;;22.90;57.20;;;;;;5025248;28;20189;-35
2022/12/21 09:27:28;;;;;;;14.20;1.83;;;22.90;57.10;;;;;;5033493;28;20200;-39
2022/12/21 09:29:55;;;;;;;2.10;1.90;;;22.90;57.20;;;;;;5027474;28;20657;-41
2022/12/21 09:32:21;;;;;;;1.70;1.58;;;22.90;57.60;;;;;;5026791;28;20197;-37
2022/12/21 09:34:48;;;;;;;1.98;1.77;;;22.90;57.70;;;;;;5023108;28;20224;-39
2022/12/21 09:37:15;;;;;;;5.32;1.88;;;22.80;57.50;;;;;;5023652;28;20239;-36
2022/12/21 09:39:41;;;;;;;2.13;1.80;;;22.70;57.90;;;;;;5025047;28;20209;-36
2022/12/21 09:42:22;;;;;;;2.67;2.30;;;22.70;57.70;;;;;;5027261;28;20288;-39
2022/12/21 09:45:03;;;;;;;2.22;2.08;;;22.60;57.60;;;;;;5034786;28;20209;-36
2022/12/21 09:47:36;;;;;;;3.00;1.77;;;22.60;57.70;;;;;;5031983;28;20195;-36
2022/12/21 09:50:07;;;;;;;2.15;1.90;;;22.50;57.60;;;;;;5029019;28;20204;-38
2022/12/21 09:52:38;;;;;;;3.35;2.13;;;22.50;57.60;;;;;;5031106;28;20197;-37
2022/12/21 09:55:09;;;;;;;1.73;1.50;;;22.50;57.60;;;;;;5027049;28;20199;-39
2022/12/21 09:57:36;;;;;;;1.50;1.40;;;22.40;57.60;;;;;;5025859;28;20232;-35
2022/12/21 10:00:15;;;;;;;2.65;1.95;;;22.40;57.70;;;;;;5030719;28;20220;-36
2022/12/21 10:02:56;;;;;;;2.50;1.73;;;22.40;57.60;;;;;;5026702;28;20380;-36
2022/12/21 10:05:50;;;;;;;3.85;1.65;;;22.30;57.60;;;;;;5028229;28;20785;-36
2022/12/21 10:08:38;;;;;;;2.05;1.85;;;22.30;57.70;;;;;;5024048;28;20562;-39
2022/12/21 10:11:13;;;;;;;5.38;2.03;;;22.30;57.90;;;;;;5029262;28;20197;-38
2022/12/21 10:13:48;;;;;;;2.35;1.95;;;22.20;57.80;;;;;;5033131;28;20196;-36
2022/12/21 10:16:26;;;;;;;4.38;1.83;;;22.20;57.90;;;;;;5024469;28;20220;-36
2022/12/21 10:19:02;;;;;;;2.28;1.73;;;22.20;57.80;;;;;;5027778;28;20220;-39
2022/12/21 10:21:41;;;;;;;2.42;2.20;;;22.20;57.80;;;;;;5022052;28;20196;-36
2022/12/21 10:24:20;;;;;;;3.28;2.60;;;22.20;57.90;;;;;;5035745;28;20207;-36
2022/12/21 10:26:48;;;;;;;2.72;1.90;;;22.20;57.90;;;;;;5032234;28;20687;-36
2022/12/21 10:29:18;;;;;;;3.00;2.70;;;22.20;58.00;;;;;;5028215;28;20901;-39
2022/12/21 10:31:47;;;;;;;1.93;1.73;;;22.30;58.00;;;;;;5025881;28;20888;-38
2022/12/21 10:34:18;;;;;;;2.42;2.03;;;22.30;57.90;;;;;;5025526;28;20462;-36
2022/12/21 10:36:47;;;;;;;2.65;2.33;;;22.30;57.90;;;;;;5021897;28;20205;-35
2022/12/21 10:39:17;;;;;;;2.57;1.90;;;22.30;57.80;;;;;;5024315;28;20715;-35
2022/12/21 10:41:47;;;;;;;3.47;3.15;;;22.30;57.70;;;;;;5025874;28;20466;-43
2022/12/21 10:44:14;;;;;;;2.97;2.75;;;22.40;57.80;;;;;;5030773;28;20298;-37
2022/12/21 10:46:41;;;;;;;2.60;2.40;;;22.40;57.70;;;;;;5018869;28;20200;-36
2022/12/21 10:49:17;;;;;;;2.90;1.90;;;22.40;57.60;;;;;;5015898;28;20208;-36
2022/12/21 10:51:44;;;;;;;2.03;1.58;;;22.40;57.70;;;;;;5019753;28;20205;-39
2022/12/21 10:54:11;;;;;;;1.98;1.85;;;22.40;57.60;;;;;;5022877;28;20204;-35
2022/12/21 10:56:45;;;;;;;3.97;1.95;;;22.40;57.80;;;;;;5027710;28;20539;-43
2022/12/21 10:59:19;;;;;;;2.73;1.83;;;22.50;57.90;;;;;;5017770;28;20234;-37
2022/12/21 11:01:47;;;;;;;1.83;1.70;;;22.50;57.90;;;;;;5017268;28;20468;-42
2022/12/21 11:04:17;;;;;;;4.80;1.85;;;22.50;57.90;;;;;;5016138;28;20209;-38
2022/12/21 11:06:59;;;;;;;2.38;1.98;;;22.50;58.20;;;;;;5020533;28;20191;-40
2022/12/21 11:09:36;;;;;;;2.17;1.73;;;22.50;58.50;;;;;;5020369;28;20201;-41
2022/12/21 11:12:15;;;;;;;1.70;1.58;;;22.50;58.40;;;;;;5019533;28;20193;-40
2022/12/21 11:14:42;;;;;;;1.67;1.52;;;22.50;58.50;;;;;;5021739;28;20223;-41
2022/12/21 11:17:16;;;;;;;1.88;1.60;;;22.50;58.50;;;;;;5018011;28;20282;-38
2022/12/21 11:19:44;;;;;;;1.98;1.80;;;22.60;58.60;;;;;;5017913;28;20220;-39
2022/12/21 11:22:14;;;;;;;2.22;2.00;;;22.60;58.60;;;;;;5018210;28;20250;-43
2022/12/21 11:24:43;;;;;;;2.08;1.67;;;22.60;58.70;;;;;;5016605;28;20201;-39
2022/12/21 11:27:22;;;;;;;2.65;2.00;;;22.60;58.70;;;;;;5017697;28;20210;-42
2022/12/21 11:29:51;;;;;;;2.35;2.00;;;22.50;58.90;;;;;;5020654;28;20196;-39
2022/12/21 11:32:19;;;;;;;2.45;1.92;;;22.50;59.10;;;;;;5019541;28;20401;-38
2022/12/21 11:34:51;;;;;;;2.17;1.98;;;22.50;59.00;;;;;;5018455;28;20719;-39
2022/12/21 11:37:26;;;;;;;2.05;1.60;;;22.50;59.20;;;;;;5018164;28;20203;-40
2022/12/21 11:39:57;;;;;;;2.72;1.80;;;22.50;59.30;;;;;;5020731;28;20204;-39
2022/12/21 11:42:25;;;;;;;2.35;2.03;;;22.50;59.20;;;;;;5030607;28;20713;-39
2022/12/21 11:45:13;;;;;;;2.17;1.75;;;22.50;59.20;;;;;;5024581;28;20212;-39
2022/12/21 11:47:49;;;;;;;4.40;3.22;;;22.50;59.20;;;;;;5033487;28;20702;-40
2022/12/21 11:50:28;;;;;;;3.65;2.92;;;22.50;59.50;;;;;;5029647;28;20360;-36
2022/12/21 11:53:23;;;;;;;2.38;2.05;;;22.60;59.60;;;;;;5026090;28;20246;-39
2022/12/21 11:56:05;;;;;;;3.93;2.70;;;22.60;59.30;;;;;;5028606;28;20656;-38
2022/12/21 11:58:46;;;;;;;3.10;2.55;;;22.70;59.50;;;;;;5013349;28;20476;-35
2022/12/21 12:01:27;;;;;;;3.63;2.50;;;22.70;59.40;;;;;;5024880;28;20196;-38
2022/12/21 12:04:11;;;;;;;2.95;2.58;;;22.70;59.40;;;;;;5023751;28;20195;-36
2022/12/21 12:06:56;;;;;;;2.53;2.33;;;22.70;59.40;;;;;;5024801;28;20198;-37
2022/12/21 12:09:39;;;;;;;3.20;2.28;;;22.70;59.40;;;;;;5024977;28;20205;-35
2022/12/21 12:12:15;;;;;;;2.75;2.50;;;22.70;59.40;;;;;;5025417;28;20236;-37
2022/12/21 12:15:00;;;;;;;2.25;1.85;;;22.70;59.40;;;;;;5018245;28;20286;-39
2022/12/21 12:17:43;;;;;;;2.75;2.25;;;22.70;59.40;;;;;;5035528;28;20728;-40
2022/12/21 12:20:26;;;;;;;3.03;2.10;;;22.80;59.30;;;;;;5030507;28;20209;-38
2022/12/21 12:23:07;;;;;;;3.38;2.00;;;22.80;59.40;;;;;;5025636;28;20204;-37
2022/12/21 12:25:55;;;;;;;2.30;1.93;;;22.80;59.30;;;;;;5032746;28;20219;-37
2022/12/21 12:28:43;;;;;;;3.40;2.50;;;22.80;59.30;;;;;;5022318;28;20459;-38
2022/12/21 12:31:24;;;;;;;2.33;2.13;;;22.90;59.30;;;;;;5020690;28;20862;-37
2022/12/21 12:34:08;;;;;;;2.42;2.22;;;22.90;59.40;;;;;;5023234;28;20455;-39
2022/12/21 12:36:44;;;;;;;2.58;2.38;;;22.90;59.40;;;;;;5022778;28;20204;-35
2022/12/21 12:39:19;;;;;;;2.93;2.63;;;22.90;59.10;;;;;;5022609;28;20248;-36
2022/12/21 12:41:55;;;;;;;2.72;2.42;;;22.90;59.40;;;;;;5033729;28;20466;-35
2022/12/21 12:44:29;;;;;;;3.10;2.60;;;22.80;59.40;;;;;;5023052;28;20208;-36
2022/12/21 12:47:08;;;;;;;3.37;2.20;;;22.70;59.50;;;;;;5019401;28;20200;-36
2022/12/21 12:49:53;;;;;;;3.67;2.00;;;22.70;59.50;;;;;;5030902;28;20513;-34
2022/12/21 12:52:37;;;;;;;4.53;2.40;;;22.70;59.60;;;;;;5019254;28;20200;-39
2022/12/21 12:55:16;;;;;;;4.23;3.10;;;22.60;59.90;;;;;;5023645;28;20690;-38
2022/12/21 12:57:54;;;;;;;3.85;2.60;;;22.60;60.30;;;;;;5023612;28;20978;-39
2022/12/21 13:00:23;;;;;;;2.87;2.57;;;22.50;60.30;;;;;;5021207;28;20656;-40
2022/12/21 13:02:58;;;;;;;2.90;2.67;;;22.50;60.30;;;;;;5019516;28;20452;-39
2022/12/21 13:05:36;;;;;;;2.73;2.33;;;22.50;60.30;;;;;;5022575;28;20196;-39
2022/12/21 13:08:16;;;;;;;2.77;2.47;;;22.50;60.20;;;;;;5019403;28;20471;-37
2022/12/21 13:10:52;;;;;;;2.90;2.60;;;22.50;60.10;;;;;;5022713;28;20466;-36
2022/12/21 13:13:26;;;;;;;2.50;2.20;;;22.50;60.10;;;;;;5022981;28;20466;-37
2022/12/21 13:15:56;;;;;;;2.47;2.27;;;22.50;59.90;;;;;;5021556;28;20459;-36
2022/12/21 13:18:29;;;;;;;3.90;2.70;;;22.60;60.00;;;;;;5021262;28;20562;-38